sensor_id;sensor_type;location;lat;lon;timestamp;P1;durP1;ratioP1;P2;durP2;ratioP2
21038;SDS011;10678;51.002;4.786;2022-10-16T00:02:24;4.45;;;1.30;;
21038;SDS011;10678;51.002;4.786;2022-10-16T00:04:50;5.72;;;1.30;;
21038;SDS011;10678;51.002;4.786;2022-10-16T00:07:15;6.03;;;1.23;;
21038;SDS011;10678;51.002;4.786;2022-10-16T00:09:41;2.83;;;1.00;;
21038;SDS011;10678;51.002;4.786;2022-10-16T00:12:06;4.55;;;1.38;;
21038;SDS011;10678;51.002;4.786;2022-10-16T00:14:32;2.67;;;0.90;;
21038;SDS011;10678;51.002;4.786;2022-10-16T00:16:58;10.65;;;1.63;;
21038;SDS011;10678;51.002;4.786;2022-10-16T00:19:23;4.95;;;0.80;;
21038;SDS011;10678;51.002;4.786;2022-10-16T00:21:49;2.53;;;0.77;;
21038;SDS011;10678;51.002;4.786;2022-10-16T00:24:15;3.45;;;0.98;;
21038;SDS011;10678;51.002;4.786;2022-10-16T00:26:40;3.75;;;0.80;;
21038;SDS011;10678;51.002;4.786;2022-10-16T00:29:06;5.43;;;1.52;;
21038;SDS011;10678;51.002;4.786;2022-10-16T00:31:32;5.90;;;1.00;;
21038;SDS011;10678;51.002;4.786;2022-10-16T00:33:58;2.45;;;0.90;;
21038;SDS011;10678;51.002;4.786;2022-10-16T00:36:26;5.72;;;1.17;;
21038;SDS011;10678;51.002;4.786;2022-10-16T00:38:54;5.00;;;0.95;;
21038;SDS011;10678;51.002;4.786;2022-10-16T00:41:23;4.78;;;1.02;;
21038;SDS011;10678;51.002;4.786;2022-10-16T00:43:51;3.30;;;0.88;;
21038;SDS011;10678;51.002;4.786;2022-10-16T00:51:41;4.72;;;1.08;;
21038;SDS011;10678;51.002;4.786;2022-10-16T00:54:10;2.35;;;0.63;;
21038;SDS011;10678;51.002;4.786;2022-10-16T00:56:39;3.42;;;0.80;;
21038;SDS011;10678;51.002;4.786;2022-10-16T00:59:07;6.18;;;0.93;;
21038;SDS011;10678;51.002;4.786;2022-10-16T01:01:39;4.03;;;1.00;;
21038;SDS011;10678;51.002;4.786;2022-10-16T01:04:04;3.95;;;1.05;;
21038;SDS011;10678;51.002;4.786;2022-10-16T01:09:24;5.00;;;0.98;;
21038;SDS011;10678;51.002;4.786;2022-10-16T01:17:45;4.80;;;0.75;;
21038;SDS011;10678;51.002;4.786;2022-10-16T01:20:29;4.65;;;1.08;;
21038;SDS011;10678;51.002;4.786;2022-10-16T01:23:24;2.70;;;0.82;;
21038;SDS011;10678;51.002;4.786;2022-10-16T01:28:58;3.92;;;0.80;;
21038;SDS011;10678;51.002;4.786;2022-10-16T01:31:29;5.57;;;1.00;;
21038;SDS011;10678;51.002;4.786;2022-10-16T01:34:10;6.10;;;0.98;;
21038;SDS011;10678;51.002;4.786;2022-10-16T01:36:56;3.08;;;1.08;;
21038;SDS011;10678;51.002;4.786;2022-10-16T01:39:28;3.45;;;1.00;;
21038;SDS011;10678;51.002;4.786;2022-10-16T01:41:59;3.70;;;1.00;;
21038;SDS011;10678;51.002;4.786;2022-10-16T01:44:39;2.67;;;0.82;;
21038;SDS011;10678;51.002;4.786;2022-10-16T01:47:08;2.50;;;0.90;;
21038;SDS011;10678;51.002;4.786;2022-10-16T01:49:35;2.65;;;0.90;;
21038;SDS011;10678;51.002;4.786;2022-10-16T01:52:04;3.83;;;0.93;;
21038;SDS011;10678;51.002;4.786;2022-10-16T01:54:33;5.75;;;1.02;;
21038;SDS011;10678;51.002;4.786;2022-10-16T01:57:02;4.75;;;0.98;;
21038;SDS011;10678;51.002;4.786;2022-10-16T01:59:31;4.78;;;0.68;;
21038;SDS011;10678;51.002;4.786;2022-10-16T02:02:01;2.72;;;0.80;;
21038;SDS011;10678;51.002;4.786;2022-10-16T02:04:43;2.95;;;0.77;;
21038;SDS011;10678;51.002;4.786;2022-10-16T02:07:12;3.03;;;0.85;;
21038;SDS011;10678;51.002;4.786;2022-10-16T02:09:39;6.20;;;1.10;;
21038;SDS011;10678;51.002;4.786;2022-10-16T02:12:10;7.03;;;0.80;;
21038;SDS011;10678;51.002;4.786;2022-10-16T02:14:40;2.28;;;0.70;;
21038;SDS011;10678;51.002;4.786;2022-10-16T02:17:14;2.83;;;0.70;;
21038;SDS011;10678;51.002;4.786;2022-10-16T02:19:42;1.90;;;0.60;;
21038;SDS011;10678;51.002;4.786;2022-10-16T02:22:15;5.18;;;1.15;;
21038;SDS011;10678;51.002;4.786;2022-10-16T02:25:03;4.18;;;1.08;;
21038;SDS011;10678;51.002;4.786;2022-10-16T02:27:40;3.10;;;0.90;;
21038;SDS011;10678;51.002;4.786;2022-10-16T02:30:27;3.90;;;1.15;;
21038;SDS011;10678;51.002;4.786;2022-10-16T02:33:13;3.85;;;0.90;;
21038;SDS011;10678;51.002;4.786;2022-10-16T02:35:40;7.75;;;1.25;;
21038;SDS011;10678;51.002;4.786;2022-10-16T02:38:08;2.28;;;0.80;;
21038;SDS011;10678;51.002;4.786;2022-10-16T02:40:34;4.40;;;0.88;;
21038;SDS011;10678;51.002;4.786;2022-10-16T02:43:02;4.40;;;0.90;;
21038;SDS011;10678;51.002;4.786;2022-10-16T02:45:29;3.20;;;0.90;;
21038;SDS011;10678;51.002;4.786;2022-10-16T02:47:55;3.35;;;1.15;;
21038;SDS011;10678;51.002;4.786;2022-10-16T02:50:21;2.90;;;1.00;;
21038;SDS011;10678;51.002;4.786;2022-10-16T02:52:47;6.55;;;1.13;;
21038;SDS011;10678;51.002;4.786;2022-10-16T02:55:13;5.00;;;1.05;;
21038;SDS011;10678;51.002;4.786;2022-10-16T02:57:39;3.58;;;1.00;;
21038;SDS011;10678;51.002;4.786;2022-10-16T03:00:05;2.53;;;1.08;;
21038;SDS011;10678;51.002;4.786;2022-10-16T03:02:32;8.60;;;1.13;;
21038;SDS011;10678;51.002;4.786;2022-10-16T03:04:58;7.65;;;1.45;;
21038;SDS011;10678;51.002;4.786;2022-10-16T03:07:24;3.35;;;0.90;;
21038;SDS011;10678;51.002;4.786;2022-10-16T03:09:49;4.50;;;1.33;;
21038;SDS011;10678;51.002;4.786;2022-10-16T03:12:15;4.32;;;1.27;;
21038;SDS011;10678;51.002;4.786;2022-10-16T03:14:40;5.68;;;1.00;;
21038;SDS011;10678;51.002;4.786;2022-10-16T03:17:06;6.30;;;1.05;;
21038;SDS011;10678;51.002;4.786;2022-10-16T03:19:31;4.80;;;1.13;;
21038;SDS011;10678;51.002;4.786;2022-10-16T03:21:57;8.23;;;1.30;;
21038;SDS011;10678;51.002;4.786;2022-10-16T03:24:22;4.80;;;1.02;;
21038;SDS011;10678;51.002;4.786;2022-10-16T03:26:48;4.15;;;1.20;;
21038;SDS011;10678;51.002;4.786;2022-10-16T03:29:13;3.20;;;0.95;;
21038;SDS011;10678;51.002;4.786;2022-10-16T03:31:39;3.08;;;1.08;;
21038;SDS011;10678;51.002;4.786;2022-10-16T03:34:05;4.22;;;1.30;;
21038;SDS011;10678;51.002;4.786;2022-10-16T03:36:30;2.80;;;1.17;;
21038;SDS011;10678;51.002;4.786;2022-10-16T03:38:56;3.40;;;1.30;;
21038;SDS011;10678;51.002;4.786;2022-10-16T03:41:22;8.88;;;1.25;;
21038;SDS011;10678;51.002;4.786;2022-10-16T03:43:47;6.07;;;1.33;;
21038;SDS011;10678;51.002;4.786;2022-10-16T03:46:13;6.63;;;1.85;;
21038;SDS011;10678;51.002;4.786;2022-10-16T03:48:38;6.30;;;1.10;;
21038;SDS011;10678;51.002;4.786;2022-10-16T03:51:05;5.82;;;1.30;;
21038;SDS011;10678;51.002;4.786;2022-10-16T03:53:30;4.65;;;1.10;;
21038;SDS011;10678;51.002;4.786;2022-10-16T03:55:56;4.55;;;1.17;;
21038;SDS011;10678;51.002;4.786;2022-10-16T03:58:21;4.20;;;0.90;;
21038;SDS011;10678;51.002;4.786;2022-10-16T04:00:47;4.45;;;1.27;;
21038;SDS011;10678;51.002;4.786;2022-10-16T04:03:13;4.78;;;1.25;;
21038;SDS011;10678;51.002;4.786;2022-10-16T04:05:39;4.93;;;1.27;;
21038;SDS011;10678;51.002;4.786;2022-10-16T04:08:05;5.45;;;1.23;;
21038;SDS011;10678;51.002;4.786;2022-10-16T04:10:31;3.28;;;1.00;;
21038;SDS011;10678;51.002;4.786;2022-10-16T04:12:56;6.13;;;1.30;;
21038;SDS011;10678;51.002;4.786;2022-10-16T04:15:23;6.20;;;1.48;;
21038;SDS011;10678;51.002;4.786;2022-10-16T04:17:49;5.32;;;1.20;;
21038;SDS011;10678;51.002;4.786;2022-10-16T04:20:14;4.20;;;1.42;;
21038;SDS011;10678;51.002;4.786;2022-10-16T04:22:40;4.38;;;1.00;;
21038;SDS011;10678;51.002;4.786;2022-10-16T04:25:06;3.00;;;0.95;;
21038;SDS011;10678;51.002;4.786;2022-10-16T04:27:31;3.30;;;1.02;;
21038;SDS011;10678;51.002;4.786;2022-10-16T04:29:58;3.08;;;1.10;;
21038;SDS011;10678;51.002;4.786;2022-10-16T04:32:24;6.13;;;1.20;;
21038;SDS011;10678;51.002;4.786;2022-10-16T04:34:50;3.13;;;0.80;;
21038;SDS011;10678;51.002;4.786;2022-10-16T04:37:15;5.63;;;1.10;;
21038;SDS011;10678;51.002;4.786;2022-10-16T04:39:41;4.38;;;0.98;;
21038;SDS011;10678;51.002;4.786;2022-10-16T04:42:07;5.75;;;1.02;;
21038;SDS011;10678;51.002;4.786;2022-10-16T04:44:32;7.28;;;1.13;;
21038;SDS011;10678;51.002;4.786;2022-10-16T04:46:58;5.00;;;1.33;;
21038;SDS011;10678;51.002;4.786;2022-10-16T04:49:23;3.20;;;1.02;;
21038;SDS011;10678;51.002;4.786;2022-10-16T04:51:49;6.60;;;1.10;;
21038;SDS011;10678;51.002;4.786;2022-10-16T04:54:14;6.15;;;1.70;;
21038;SDS011;10678;51.002;4.786;2022-10-16T04:56:40;14.32;;;1.60;;
21038;SDS011;10678;51.002;4.786;2022-10-16T04:59:12;6.28;;;1.25;;
21038;SDS011;10678;51.002;4.786;2022-10-16T05:01:38;6.45;;;1.15;;
21038;SDS011;10678;51.002;4.786;2022-10-16T05:04:04;5.55;;;1.50;;
21038;SDS011;10678;51.002;4.786;2022-10-16T05:06:29;6.10;;;1.48;;
21038;SDS011;10678;51.002;4.786;2022-10-16T05:08:55;6.00;;;1.38;;
21038;SDS011;10678;51.002;4.786;2022-10-16T05:11:20;6.40;;;1.45;;
21038;SDS011;10678;51.002;4.786;2022-10-16T05:13:46;4.85;;;1.17;;
21038;SDS011;10678;51.002;4.786;2022-10-16T05:16:11;6.25;;;1.88;;
21038;SDS011;10678;51.002;4.786;2022-10-16T05:18:37;5.50;;;1.50;;
21038;SDS011;10678;51.002;4.786;2022-10-16T05:21:03;7.82;;;1.90;;
21038;SDS011;10678;51.002;4.786;2022-10-16T05:23:28;4.60;;;1.30;;
21038;SDS011;10678;51.002;4.786;2022-10-16T05:25:57;7.22;;;1.48;;
21038;SDS011;10678;51.002;4.786;2022-10-16T05:28:27;5.53;;;1.45;;
21038;SDS011;10678;51.002;4.786;2022-10-16T05:30:55;9.40;;;1.60;;
21038;SDS011;10678;51.002;4.786;2022-10-16T05:33:21;4.25;;;1.60;;
21038;SDS011;10678;51.002;4.786;2022-10-16T05:35:48;4.72;;;1.30;;
21038;SDS011;10678;51.002;4.786;2022-10-16T05:38:14;7.20;;;1.30;;
21038;SDS011;10678;51.002;4.786;2022-10-16T05:40:40;7.53;;;1.92;;
21038;SDS011;10678;51.002;4.786;2022-10-16T05:43:06;4.20;;;1.30;;
21038;SDS011;10678;51.002;4.786;2022-10-16T05:45:32;5.95;;;1.60;;
21038;SDS011;10678;51.002;4.786;2022-10-16T05:47:57;6.00;;;1.60;;
21038;SDS011;10678;51.002;4.786;2022-10-16T05:50:23;5.63;;;2.00;;
21038;SDS011;10678;51.002;4.786;2022-10-16T05:52:48;7.70;;;1.40;;
21038;SDS011;10678;51.002;4.786;2022-10-16T05:55:14;6.85;;;1.50;;
21038;SDS011;10678;51.002;4.786;2022-10-16T05:57:40;4.97;;;1.52;;
21038;SDS011;10678;51.002;4.786;2022-10-16T06:00:06;5.60;;;1.33;;
21038;SDS011;10678;51.002;4.786;2022-10-16T06:02:32;4.82;;;1.50;;
21038;SDS011;10678;51.002;4.786;2022-10-16T06:04:57;16.67;;;2.60;;
21038;SDS011;10678;51.002;4.786;2022-10-16T06:07:23;12.43;;;3.08;;
21038;SDS011;10678;51.002;4.786;2022-10-16T06:09:49;7.70;;;1.80;;
21038;SDS011;10678;51.002;4.786;2022-10-16T06:12:16;6.90;;;1.92;;
21038;SDS011;10678;51.002;4.786;2022-10-16T06:14:41;4.65;;;1.73;;
21038;SDS011;10678;51.002;4.786;2022-10-16T06:17:07;3.65;;;1.23;;
21038;SDS011;10678;51.002;4.786;2022-10-16T06:19:32;8.52;;;2.05;;
21038;SDS011;10678;51.002;4.786;2022-10-16T06:21:58;4.72;;;2.15;;
21038;SDS011;10678;51.002;4.786;2022-10-16T06:24:24;5.97;;;1.73;;
21038;SDS011;10678;51.002;4.786;2022-10-16T06:26:50;9.90;;;2.50;;
21038;SDS011;10678;51.002;4.786;2022-10-16T06:29:16;3.70;;;1.45;;
21038;SDS011;10678;51.002;4.786;2022-10-16T06:31:41;8.90;;;1.80;;
21038;SDS011;10678;51.002;4.786;2022-10-16T06:34:10;4.78;;;1.80;;
21038;SDS011;10678;51.002;4.786;2022-10-16T06:36:37;8.73;;;1.77;;
21038;SDS011;10678;51.002;4.786;2022-10-16T06:39:03;4.75;;;1.50;;
21038;SDS011;10678;51.002;4.786;2022-10-16T06:41:30;7.45;;;2.53;;
21038;SDS011;10678;51.002;4.786;2022-10-16T06:43:56;12.48;;;2.10;;
21038;SDS011;10678;51.002;4.786;2022-10-16T06:46:23;6.47;;;1.75;;
21038;SDS011;10678;51.002;4.786;2022-10-16T06:48:50;9.90;;;2.10;;
21038;SDS011;10678;51.002;4.786;2022-10-16T06:51:17;6.70;;;2.38;;
21038;SDS011;10678;51.002;4.786;2022-10-16T06:53:45;6.60;;;1.80;;
21038;SDS011;10678;51.002;4.786;2022-10-16T06:56:16;4.18;;;1.60;;
21038;SDS011;10678;51.002;4.786;2022-10-16T06:58:43;6.72;;;2.00;;
21038;SDS011;10678;51.002;4.786;2022-10-16T07:01:09;7.70;;;1.90;;
21038;SDS011;10678;51.002;4.786;2022-10-16T07:03:38;5.15;;;1.98;;
21038;SDS011;10678;51.002;4.786;2022-10-16T07:06:06;5.30;;;2.00;;
21038;SDS011;10678;51.002;4.786;2022-10-16T07:08:32;5.88;;;1.83;;
21038;SDS011;10678;51.002;4.786;2022-10-16T07:11:06;5.05;;;1.70;;
21038;SDS011;10678;51.002;4.786;2022-10-16T07:13:37;5.03;;;1.88;;
21038;SDS011;10678;51.002;4.786;2022-10-16T07:16:08;13.38;;;2.22;;
21038;SDS011;10678;51.002;4.786;2022-10-16T07:18:34;8.30;;;2.72;;
21038;SDS011;10678;51.002;4.786;2022-10-16T07:21:08;8.35;;;1.67;;
21038;SDS011;10678;51.002;4.786;2022-10-16T07:23:35;3.78;;;1.58;;
21038;SDS011;10678;51.002;4.786;2022-10-16T07:26:02;6.50;;;1.73;;
21038;SDS011;10678;51.002;4.786;2022-10-16T07:28:28;9.43;;;2.05;;
21038;SDS011;10678;51.002;4.786;2022-10-16T07:30:54;5.55;;;1.70;;
21038;SDS011;10678;51.002;4.786;2022-10-16T07:33:20;4.78;;;2.03;;
21038;SDS011;10678;51.002;4.786;2022-10-16T07:35:52;6.80;;;1.85;;
21038;SDS011;10678;51.002;4.786;2022-10-16T07:38:19;6.03;;;1.75;;
21038;SDS011;10678;51.002;4.786;2022-10-16T07:40:46;5.78;;;2.20;;
21038;SDS011;10678;51.002;4.786;2022-10-16T07:43:12;5.22;;;1.50;;
21038;SDS011;10678;51.002;4.786;2022-10-16T07:45:46;7.57;;;1.92;;
21038;SDS011;10678;51.002;4.786;2022-10-16T07:48:15;6.25;;;1.45;;
21038;SDS011;10678;51.002;4.786;2022-10-16T07:50:42;6.07;;;1.77;;
21038;SDS011;10678;51.002;4.786;2022-10-16T07:53:08;6.25;;;1.90;;
21038;SDS011;10678;51.002;4.786;2022-10-16T07:55:34;3.35;;;1.30;;
21038;SDS011;10678;51.002;4.786;2022-10-16T07:57:59;4.80;;;1.58;;
21038;SDS011;10678;51.002;4.786;2022-10-16T08:00:25;5.65;;;2.08;;
21038;SDS011;10678;51.002;4.786;2022-10-16T08:02:51;6.50;;;1.60;;
21038;SDS011;10678;51.002;4.786;2022-10-16T08:05:16;7.15;;;1.63;;
21038;SDS011;10678;51.002;4.786;2022-10-16T08:07:42;6.88;;;1.67;;
21038;SDS011;10678;51.002;4.786;2022-10-16T08:10:11;4.18;;;1.60;;
21038;SDS011;10678;51.002;4.786;2022-10-16T08:12:42;6.35;;;1.40;;
21038;SDS011;10678;51.002;4.786;2022-10-16T08:15:07;6.78;;;1.50;;
21038;SDS011;10678;51.002;4.786;2022-10-16T08:17:34;8.95;;;1.98;;
21038;SDS011;10678;51.002;4.786;2022-10-16T08:19:59;7.30;;;1.85;;
21038;SDS011;10678;51.002;4.786;2022-10-16T08:22:25;4.32;;;1.20;;
21038;SDS011;10678;51.002;4.786;2022-10-16T08:24:50;6.15;;;1.42;;
21038;SDS011;10678;51.002;4.786;2022-10-16T08:27:16;7.13;;;1.70;;
21038;SDS011;10678;51.002;4.786;2022-10-16T08:29:41;7.03;;;1.90;;
21038;SDS011;10678;51.002;4.786;2022-10-16T08:32:07;5.72;;;1.60;;
21038;SDS011;10678;51.002;4.786;2022-10-16T08:34:33;6.47;;;1.30;;
21038;SDS011;10678;51.002;4.786;2022-10-16T08:36:58;8.38;;;1.30;;
21038;SDS011;10678;51.002;4.786;2022-10-16T08:39:24;5.28;;;1.15;;
21038;SDS011;10678;51.002;4.786;2022-10-16T08:42:02;5.45;;;1.38;;
21038;SDS011;10678;51.002;4.786;2022-10-16T08:47:49;7.00;;;1.50;;
21038;SDS011;10678;51.002;4.786;2022-10-16T08:50:24;10.30;;;1.55;;
21038;SDS011;10678;51.002;4.786;2022-10-16T08:52:52;5.65;;;1.42;;
21038;SDS011;10678;51.002;4.786;2022-10-16T08:58:22;7.63;;;1.25;;
21038;SDS011;10678;51.002;4.786;2022-10-16T09:00:53;6.35;;;1.38;;
21038;SDS011;10678;51.002;4.786;2022-10-16T09:03:24;7.75;;;1.70;;
21038;SDS011;10678;51.002;4.786;2022-10-16T09:11:52;3.85;;;1.30;;
21038;SDS011;10678;51.002;4.786;2022-10-16T09:16:53;8.95;;;1.55;;
21038;SDS011;10678;51.002;4.786;2022-10-16T09:19:28;4.28;;;1.20;;
21038;SDS011;10678;51.002;4.786;2022-10-16T09:22:04;10.00;;;1.40;;
21038;SDS011;10678;51.002;4.786;2022-10-16T09:24:40;7.63;;;1.70;;
21038;SDS011;10678;51.002;4.786;2022-10-16T09:27:08;4.05;;;1.58;;
21038;SDS011;10678;51.002;4.786;2022-10-16T09:29:36;7.05;;;1.30;;
21038;SDS011;10678;51.002;4.786;2022-10-16T09:32:35;8.27;;;1.83;;
21038;SDS011;10678;51.002;4.786;2022-10-16T09:34:54;7.60;;;1.40;;
21038;SDS011;10678;51.002;4.786;2022-10-16T09:37:22;9.30;;;1.23;;
21038;SDS011;10678;51.002;4.786;2022-10-16T09:39:50;8.05;;;1.02;;
21038;SDS011;10678;51.002;4.786;2022-10-16T09:42:24;6.80;;;1.52;;
21038;SDS011;10678;51.002;4.786;2022-10-16T09:44:51;2.95;;;0.90;;
21038;SDS011;10678;51.002;4.786;2022-10-16T09:47:19;7.15;;;1.10;;
21038;SDS011;10678;51.002;4.786;2022-10-16T09:49:55;8.68;;;1.20;;
21038;SDS011;10678;51.002;4.786;2022-10-16T09:52:24;6.38;;;1.23;;
21038;SDS011;10678;51.002;4.786;2022-10-16T09:54:55;8.05;;;1.02;;
21038;SDS011;10678;51.002;4.786;2022-10-16T09:57:22;4.53;;;0.75;;
21038;SDS011;10678;51.002;4.786;2022-10-16T09:59:52;8.85;;;1.80;;
21038;SDS011;10678;51.002;4.786;2022-10-16T10:02:20;7.85;;;1.40;;
21038;SDS011;10678;51.002;4.786;2022-10-16T10:04:53;7.53;;;1.10;;
21038;SDS011;10678;51.002;4.786;2022-10-16T10:07:32;7.32;;;1.33;;
21038;SDS011;10678;51.002;4.786;2022-10-16T10:10:01;4.40;;;0.70;;
21038;SDS011;10678;51.002;4.786;2022-10-16T10:12:29;7.53;;;0.90;;
21038;SDS011;10678;51.002;4.786;2022-10-16T10:15:04;6.85;;;0.98;;
21038;SDS011;10678;51.002;4.786;2022-10-16T10:17:50;5.40;;;1.20;;
21038;SDS011;10678;51.002;4.786;2022-10-16T10:23:00;8.52;;;1.00;;
21038;SDS011;10678;51.002;4.786;2022-10-16T10:28:44;6.50;;;1.00;;
21038;SDS011;10678;51.002;4.786;2022-10-16T10:34:11;11.77;;;2.60;;
21038;SDS011;10678;51.002;4.786;2022-10-16T10:40:08;6.53;;;1.15;;
21038;SDS011;10678;51.002;4.786;2022-10-16T10:42:46;4.97;;;1.02;;
21038;SDS011;10678;51.002;4.786;2022-10-16T10:48:06;6.47;;;1.50;;
21038;SDS011;10678;51.002;4.786;2022-10-16T10:51:27;8.13;;;1.02;;
21038;SDS011;10678;51.002;4.786;2022-10-16T10:56:09;7.22;;;1.05;;
21038;SDS011;10678;51.002;4.786;2022-10-16T11:01:26;6.43;;;0.82;;
21038;SDS011;10678;51.002;4.786;2022-10-16T11:07:05;8.77;;;1.10;;
21038;SDS011;10678;51.002;4.786;2022-10-16T11:09:40;5.25;;;1.25;;
21038;SDS011;10678;51.002;4.786;2022-10-16T11:12:17;7.15;;;1.13;;
21038;SDS011;10678;51.002;4.786;2022-10-16T11:14:48;4.75;;;0.90;;
21038;SDS011;10678;51.002;4.786;2022-10-16T11:17:51;7.65;;;1.35;;
21038;SDS011;10678;51.002;4.786;2022-10-16T11:21:00;5.60;;;0.90;;
21038;SDS011;10678;51.002;4.786;2022-10-16T11:23:34;4.80;;;0.80;;
21038;SDS011;10678;51.002;4.786;2022-10-16T11:26:17;5.75;;;0.80;;
21038;SDS011;10678;51.002;4.786;2022-10-16T11:28:48;4.95;;;0.88;;
21038;SDS011;10678;51.002;4.786;2022-10-16T11:33:54;5.97;;;1.13;;
21038;SDS011;10678;51.002;4.786;2022-10-16T11:45:02;4.32;;;0.95;;
21038;SDS011;10678;51.002;4.786;2022-10-16T11:55:36;4.07;;;1.27;;
21038;SDS011;10678;51.002;4.786;2022-10-16T12:00:58;5.82;;;0.90;;
21038;SDS011;10678;51.002;4.786;2022-10-16T12:08:49;3.92;;;1.08;;
21038;SDS011;10678;51.002;4.786;2022-10-16T12:16:58;6.13;;;0.73;;
21038;SDS011;10678;51.002;4.786;2022-10-16T12:19:26;3.90;;;0.77;;
21038;SDS011;10678;51.002;4.786;2022-10-16T12:21:58;4.50;;;1.00;;
21038;SDS011;10678;51.002;4.786;2022-10-16T12:24:39;5.72;;;1.10;;
21038;SDS011;10678;51.002;4.786;2022-10-16T12:27:20;6.75;;;1.05;;
21038;SDS011;10678;51.002;4.786;2022-10-16T12:29:48;6.90;;;0.90;;
21038;SDS011;10678;51.002;4.786;2022-10-16T12:32:31;5.85;;;1.00;;
21038;SDS011;10678;51.002;4.786;2022-10-16T12:34:59;8.10;;;1.30;;
21038;SDS011;10678;51.002;4.786;2022-10-16T12:37:28;5.82;;;1.02;;
21038;SDS011;10678;51.002;4.786;2022-10-16T12:39:59;4.80;;;0.70;;
21038;SDS011;10678;51.002;4.786;2022-10-16T12:42:38;6.82;;;0.88;;
21038;SDS011;10678;51.002;4.786;2022-10-16T12:47:51;9.82;;;1.35;;
21038;SDS011;10678;51.002;4.786;2022-10-16T12:50:35;9.90;;;0.93;;
21038;SDS011;10678;51.002;4.786;2022-10-16T12:53:03;4.65;;;0.70;;
21038;SDS011;10678;51.002;4.786;2022-10-16T12:55:45;14.50;;;1.55;;
21038;SDS011;10678;51.002;4.786;2022-10-16T13:01:09;4.65;;;1.25;;
21038;SDS011;10678;51.002;4.786;2022-10-16T13:04:10;10.68;;;1.08;;
21038;SDS011;10678;51.002;4.786;2022-10-16T13:17:42;6.03;;;0.93;;
21038;SDS011;10678;51.002;4.786;2022-10-16T13:21:07;8.48;;;0.73;;
21038;SDS011;10678;51.002;4.786;2022-10-16T13:23:26;8.98;;;0.90;;
21038;SDS011;10678;51.002;4.786;2022-10-16T13:28:45;3.10;;;0.75;;
21038;SDS011;10678;51.002;4.786;2022-10-16T13:31:20;6.32;;;0.98;;
21038;SDS011;10678;51.002;4.786;2022-10-16T13:33:58;3.15;;;0.52;;
21038;SDS011;10678;51.002;4.786;2022-10-16T13:36:29;11.75;;;1.70;;
21038;SDS011;10678;51.002;4.786;2022-10-16T13:39:16;7.90;;;0.90;;
21038;SDS011;10678;51.002;4.786;2022-10-16T13:44:47;2.70;;;0.90;;
21038;SDS011;10678;51.002;4.786;2022-10-16T13:49:45;6.38;;;1.33;;
21038;SDS011;10678;51.002;4.786;2022-10-16T13:52:16;10.88;;;1.60;;
21038;SDS011;10678;51.002;4.786;2022-10-16T13:54:44;5.07;;;0.88;;
21038;SDS011;10678;51.002;4.786;2022-10-16T13:57:13;7.80;;;1.17;;
21038;SDS011;10678;51.002;4.786;2022-10-16T13:59:40;5.00;;;0.90;;
21038;SDS011;10678;51.002;4.786;2022-10-16T14:04:43;5.20;;;0.88;;
21038;SDS011;10678;51.002;4.786;2022-10-16T14:07:13;9.00;;;1.02;;
21038;SDS011;10678;51.002;4.786;2022-10-16T14:09:48;10.45;;;1.10;;
21038;SDS011;10678;51.002;4.786;2022-10-16T14:12:15;6.40;;;0.80;;
21038;SDS011;10678;51.002;4.786;2022-10-16T14:14:42;5.93;;;1.38;;
21038;SDS011;10678;51.002;4.786;2022-10-16T14:17:13;4.47;;;0.70;;
21038;SDS011;10678;51.002;4.786;2022-10-16T14:19:39;3.47;;;0.85;;
21038;SDS011;10678;51.002;4.786;2022-10-16T14:22:26;7.30;;;0.88;;
21038;SDS011;10678;51.002;4.786;2022-10-16T14:24:54;5.85;;;1.20;;
21038;SDS011;10678;51.002;4.786;2022-10-16T14:27:26;5.28;;;0.80;;
21038;SDS011;10678;51.002;4.786;2022-10-16T14:30:19;9.18;;;1.25;;
21038;SDS011;10678;51.002;4.786;2022-10-16T14:32:54;6.40;;;1.15;;
21038;SDS011;10678;51.002;4.786;2022-10-16T14:35:25;10.02;;;1.63;;
21038;SDS011;10678;51.002;4.786;2022-10-16T14:37:54;6.22;;;1.27;;
21038;SDS011;10678;51.002;4.786;2022-10-16T14:40:23;6.68;;;0.93;;
21038;SDS011;10678;51.002;4.786;2022-10-16T14:42:50;13.15;;;0.90;;
21038;SDS011;10678;51.002;4.786;2022-10-16T14:45:19;5.38;;;0.80;;
21038;SDS011;10678;51.002;4.786;2022-10-16T14:47:49;7.00;;;0.88;;
21038;SDS011;10678;51.002;4.786;2022-10-16T14:50:18;6.97;;;2.47;;
21038;SDS011;10678;51.002;4.786;2022-10-16T14:52:44;6.05;;;1.20;;
21038;SDS011;10678;51.002;4.786;2022-10-16T14:55:09;2.22;;;0.82;;
21038;SDS011;10678;51.002;4.786;2022-10-16T14:57:36;9.82;;;1.35;;
21038;SDS011;10678;51.002;4.786;2022-10-16T15:00:09;5.57;;;0.95;;
21038;SDS011;10678;51.002;4.786;2022-10-16T15:02:40;7.30;;;1.02;;
21038;SDS011;10678;51.002;4.786;2022-10-16T15:07:45;8.50;;;1.55;;
21038;SDS011;10678;51.002;4.786;2022-10-16T15:10:12;7.97;;;1.52;;
21038;SDS011;10678;51.002;4.786;2022-10-16T15:12:38;4.45;;;1.30;;
21038;SDS011;10678;51.002;4.786;2022-10-16T15:17:48;7.50;;;1.25;;
21038;SDS011;10678;51.002;4.786;2022-10-16T15:20:18;6.05;;;1.30;;
21038;SDS011;10678;51.002;4.786;2022-10-16T15:22:44;10.15;;;2.13;;
21038;SDS011;10678;51.002;4.786;2022-10-16T15:25:32;9.43;;;2.13;;
21038;SDS011;10678;51.002;4.786;2022-10-16T15:27:58;11.95;;;1.58;;
21038;SDS011;10678;51.002;4.786;2022-10-16T15:30:25;11.05;;;2.42;;
21038;SDS011;10678;51.002;4.786;2022-10-16T15:32:51;9.57;;;2.78;;
21038;SDS011;10678;51.002;4.786;2022-10-16T15:35:17;7.53;;;2.10;;
21038;SDS011;10678;51.002;4.786;2022-10-16T15:37:42;11.25;;;2.70;;
21038;SDS011;10678;51.002;4.786;2022-10-16T15:40:09;9.02;;;2.58;;
21038;SDS011;10678;51.002;4.786;2022-10-16T15:42:35;7.70;;;2.38;;
21038;SDS011;10678;51.002;4.786;2022-10-16T15:45:01;6.28;;;1.60;;
21038;SDS011;10678;51.002;4.786;2022-10-16T15:47:28;5.35;;;1.77;;
21038;SDS011;10678;51.002;4.786;2022-10-16T15:49:53;8.73;;;1.70;;
21038;SDS011;10678;51.002;4.786;2022-10-16T15:52:19;8.90;;;2.03;;
21038;SDS011;10678;51.002;4.786;2022-10-16T15:54:44;10.07;;;2.08;;
21038;SDS011;10678;51.002;4.786;2022-10-16T15:57:10;9.23;;;1.52;;
21038;SDS011;10678;51.002;4.786;2022-10-16T15:59:35;5.88;;;1.30;;
21038;SDS011;10678;51.002;4.786;2022-10-16T16:02:01;9.85;;;1.83;;
21038;SDS011;10678;51.002;4.786;2022-10-16T16:04:29;5.07;;;1.23;;
21038;SDS011;10678;51.002;4.786;2022-10-16T16:06:55;5.88;;;1.30;;
21038;SDS011;10678;51.002;4.786;2022-10-16T16:09:21;5.45;;;1.30;;
21038;SDS011;10678;51.002;4.786;2022-10-16T16:11:47;5.57;;;1.10;;
21038;SDS011;10678;51.002;4.786;2022-10-16T16:14:14;8.55;;;1.60;;
21038;SDS011;10678;51.002;4.786;2022-10-16T16:16:39;6.25;;;1.10;;
21038;SDS011;10678;51.002;4.786;2022-10-16T16:19:06;11.05;;;1.45;;
21038;SDS011;10678;51.002;4.786;2022-10-16T16:21:32;7.43;;;1.70;;
21038;SDS011;10678;51.002;4.786;2022-10-16T16:23:58;6.55;;;1.15;;
21038;SDS011;10678;51.002;4.786;2022-10-16T16:26:25;5.63;;;1.15;;
21038;SDS011;10678;51.002;4.786;2022-10-16T16:28:52;8.13;;;1.02;;
21038;SDS011;10678;51.002;4.786;2022-10-16T16:31:19;9.25;;;1.50;;
21038;SDS011;10678;51.002;4.786;2022-10-16T16:33:46;7.97;;;2.25;;
21038;SDS011;10678;51.002;4.786;2022-10-16T16:36:11;6.00;;;1.17;;
21038;SDS011;10678;51.002;4.786;2022-10-16T16:38:37;12.00;;;1.20;;
21038;SDS011;10678;51.002;4.786;2022-10-16T16:41:19;7.53;;;1.20;;
21038;SDS011;10678;51.002;4.786;2022-10-16T16:43:45;9.13;;;1.90;;
21038;SDS011;10678;51.002;4.786;2022-10-16T16:46:12;9.82;;;2.33;;
21038;SDS011;10678;51.002;4.786;2022-10-16T16:48:38;6.25;;;1.75;;
21038;SDS011;10678;51.002;4.786;2022-10-16T16:51:08;16.48;;;2.50;;
21038;SDS011;10678;51.002;4.786;2022-10-16T16:53:36;8.05;;;2.33;;
21038;SDS011;10678;51.002;4.786;2022-10-16T16:56:03;8.18;;;2.30;;
21038;SDS011;10678;51.002;4.786;2022-10-16T16:58:29;9.65;;;2.42;;
21038;SDS011;10678;51.002;4.786;2022-10-16T17:00:55;12.10;;;2.03;;
21038;SDS011;10678;51.002;4.786;2022-10-16T17:03:21;7.95;;;1.73;;